Time;durP1;ratioP1;P1;durP2;ratioP2;P2;SDS_P1;SDS_P2;PMS_P1;PMS_P2;Temp;Humidity;BMP_temperature;BMP_pressure;BME280_temperature;BME280_humidity;BME280_pressure;Samples;Min_cycle;Max_cycle;Signal;HPM_P1;HPM_P2
2022/03/10 00:01:38;;;;;;;19.95;12.70;;;5.10;48.90;;;;;;5054655;28;20037;-45
2022/03/10 00:04:05;;;;;;;19.08;11.18;;;5.00;48.90;;;;;;5070766;28;20686;-49
2022/03/10 00:06:32;;;;;;;19.13;11.60;;;5.10;49.00;;;;;;5062243;28;20426;-49
2022/03/10 00:08:59;;;;;;;19.23;11.57;;;5.00;49.00;;;;;;5052190;28;20118;-46
2022/03/10 00:11:25;;;;;;;20.80;12.90;;;5.00;49.10;;;;;;5055778;28;20044;-47
2022/03/10 00:13:52;;;;;;;23.65;11.40;;;5.00;49.20;;;;;;5057378;28;20053;-45
2022/03/10 00:16:19;;;;;;;19.73;12.10;;;5.00;49.30;;;;;;5063201;28;20079;-47
2022/03/10 00:18:46;;;;;;;17.67;11.48;;;5.00;49.30;;;;;;5072055;28;20064;-45
2022/03/10 00:21:15;;;;;;;18.45;11.63;;;4.90;49.40;;;;;;5059888;28;20110;-47
2022/03/10 00:23:42;;;;;;;21.08;12.25;;;4.90;49.70;;;;;;5066467;28;20119;-45
2022/03/10 00:26:09;;;;;;;19.55;11.40;;;4.90;49.50;;;;;;5072102;28;20146;-45
2022/03/10 00:28:36;;;;;;;23.05;13.02;;;4.90;50.10;;;;;;5068301;28;20094;-44
2022/03/10 00:31:03;;;;;;;23.42;12.57;;;4.90;49.60;;;;;;5047546;28;20047;-45
2022/03/10 00:33:30;;;;;;;20.10;12.90;;;4.90;50.30;;;;;;5064575;28;20036;-46
2022/03/10 00:35:56;;;;;;;21.20;12.32;;;4.90;49.80;;;;;;5072005;28;20040;-48
2022/03/10 00:38:23;;;;;;;22.75;11.90;;;4.90;49.80;;;;;;5056325;28;20731;-48
2022/03/10 00:40:51;;;;;;;18.92;12.05;;;4.90;49.80;;;;;;5059279;28;20032;-46
2022/03/10 00:43:17;;;;;;;22.70;12.50;;;4.90;49.90;;;;;;5071649;28;20526;-45
2022/03/10 00:45:44;;;;;;;18.63;11.82;;;4.90;49.90;;;;;;5066775;28;20050;-44
2022/03/10 00:48:11;;;;;;;22.10;11.82;;;4.90;49.90;;;;;;5050098;28;20072;-45
2022/03/10 00:50:39;;;;;;;25.10;12.00;;;4.80;49.90;;;;;;5058476;28;20429;-44
2022/03/10 00:53:06;;;;;;;25.67;13.32;;;4.80;49.90;;;;;;5067440;28;20051;-45
2022/03/10 00:55:33;;;;;;;19.98;11.85;;;4.80;49.90;;;;;;5070953;28;20072;-49
2022/03/10 00:57:59;;;;;;;20.30;10.13;;;4.80;49.80;;;;;;5052499;28;20041;-46
2022/03/10 01:00:28;;;;;;;23.08;12.65;;;4.80;49.90;;;;;;5061763;28;20091;-45
2022/03/10 01:02:57;;;;;;;20.58;12.18;;;4.80;49.90;;;;;;5071208;28;20071;-45
2022/03/10 01:05:25;;;;;;;20.65;12.00;;;4.70;50.10;;;;;;5055036;28;20408;-45
2022/03/10 01:07:51;;;;;;;19.05;12.00;;;4.70;50.00;;;;;;5062115;28;20409;-47
2022/03/10 01:10:19;;;;;;;21.05;12.43;;;4.70;50.00;;;;;;5052848;28;20111;-45
2022/03/10 01:12:46;;;;;;;19.77;11.32;;;4.70;50.10;;;;;;5070297;28;20070;-44
2022/03/10 01:15:16;;;;;;;19.08;12.38;;;4.60;50.10;;;;;;5065619;28;20094;-45
2022/03/10 01:17:43;;;;;;;19.77;11.98;;;4.60;50.10;;;;;;5030758;28;20048;-46
2022/03/10 01:20:11;;;;;;;18.80;11.93;;;4.60;50.10;;;;;;5051704;28;20095;-45
2022/03/10 01:22:38;;;;;;;24.45;12.63;;;4.60;50.20;;;;;;5068111;28;20048;-44
2022/03/10 01:25:09;;;;;;;20.73;11.25;;;4.50;50.20;;;;;;5070186;28;20041;-49
2022/03/10 01:27:37;;;;;;;21.25;11.77;;;4.50;50.40;;;;;;5057408;28;20087;-45
2022/03/10 01:30:06;;;;;;;19.63;11.52;;;4.50;50.30;;;;;;5063157;28;20102;-46
2022/03/10 01:32:34;;;;;;;21.67;13.07;;;4.50;50.50;;;;;;5070558;28;20036;-46
2022/03/10 01:35:02;;;;;;;24.50;12.30;;;4.40;50.50;;;;;;5063995;28;20566;-46
2022/03/10 01:37:34;;;;;;;21.05;11.88;;;4.40;50.50;;;;;;5053073;28;20041;-45
2022/03/10 01:40:00;;;;;;;22.42;12.55;;;4.40;50.50;;;;;;5071157;28;20098;-48
2022/03/10 01:42:27;;;;;;;23.42;11.77;;;4.40;50.50;;;;;;5069751;28;20051;-47
2022/03/10 01:44:54;;;;;;;20.83;11.65;;;4.40;50.60;;;;;;5055964;28;20109;-46
2022/03/10 01:47:21;;;;;;;22.63;12.07;;;4.30;50.60;;;;;;5052332;28;20044;-46
2022/03/10 01:49:50;;;;;;;23.08;13.27;;;4.30;50.70;;;;;;5044920;28;20094;-45
2022/03/10 01:52:19;;;;;;;23.13;12.52;;;4.30;50.80;;;;;;5070079;28;20098;-45
2022/03/10 01:54:46;;;;;;;22.77;12.30;;;4.30;51.00;;;;;;5066262;28;20545;-46
2022/03/10 01:57:15;;;;;;;22.38;12.40;;;4.30;50.90;;;;;;5052035;28;20510;-45
2022/03/10 01:59:42;;;;;;;21.83;13.00;;;4.20;50.90;;;;;;5069650;28;20068;-44
2022/03/10 02:02:09;;;;;;;20.60;12.60;;;4.20;51.00;;;;;;5069979;28;20094;-44
2022/03/10 02:04:36;;;;;;;22.92;13.65;;;4.20;51.00;;;;;;5060992;28;20112;-46
2022/03/10 02:07:06;;;;;;;19.98;11.63;;;4.20;50.90;;;;;;5060525;28;20503;-45
2022/03/10 02:12:19;;;;;;;21.25;12.98;;;4.20;51.00;;;;;;5049884;28;20048;-46
2022/03/10 02:17:38;;;;;;;22.23;12.63;;;4.20;51.20;;;;;;5065451;28;20055;-45
2022/03/10 02:20:06;;;;;;;22.33;12.23;;;4.20;51.10;;;;;;5070451;28;20046;-48
2022/03/10 02:22:32;;;;;;;21.70;12.15;;;4.20;51.10;;;;;;5064177;28;20037;-46
2022/03/10 02:24:59;;;;;;;27.60;13.38;;;4.10;51.20;;;;;;5050777;28;20029;-45
2022/03/10 02:27:27;;;;;;;21.48;11.95;;;4.20;51.30;;;;;;5066358;28;20040;-46
2022/03/10 02:30:00;;;;;;;21.60;12.18;;;4.10;51.30;;;;;;5070278;28;20046;-45
2022/03/10 02:32:28;;;;;;;21.00;12.23;;;4.20;51.40;;;;;;5055522;28;20041;-45
2022/03/10 02:34:55;;;;;;;23.83;12.13;;;4.20;51.20;;;;;;5055560;28;20056;-45
2022/03/10 02:37:21;;;;;;;20.52;13.20;;;4.10;51.20;;;;;;5065855;28;20086;-46
2022/03/10 02:39:48;;;;;;;22.83;12.25;;;4.10;51.20;;;;;;5050135;28;20110;-45
2022/03/10 02:42:16;;;;;;;25.88;12.55;;;4.10;51.20;;;;;;5027824;28;20497;-48
2022/03/10 02:44:45;;;;;;;26.58;12.40;;;4.10;51.30;;;;;;5058974;28;20061;-44
2022/03/10 02:47:13;;;;;;;20.73;13.02;;;4.10;51.40;;;;;;5068432;28;20102;-46
2022/03/10 02:49:40;;;;;;;22.15;13.43;;;4.00;51.40;;;;;;5069967;28;20098;-44
2022/03/10 02:52:08;;;;;;;28.33;14.02;;;4.00;51.50;;;;;;5057193;28;20049;-44
2022/03/10 02:54:45;;;;;;;22.08;12.02;;;4.00;51.50;;;;;;5068395;28;20052;-45
2022/03/10 02:57:13;;;;;;;23.55;12.32;;;4.00;51.50;;;;;;5068506;28;20045;-46
2022/03/10 02:59:41;;;;;;;24.13;13.15;;;4.00;51.50;;;;;;5061386;28;20492;-45
2022/03/10 03:02:08;;;;;;;22.27;12.15;;;4.00;51.60;;;;;;5055101;28;20090;-45
2022/03/10 03:04:35;;;;;;;20.17;11.55;;;3.90;51.60;;;;;;5069403;28;20045;-45
2022/03/10 03:07:03;;;;;;;22.38;12.85;;;3.90;51.50;;;;;;5058652;28;20048;-45
2022/03/10 03:09:30;;;;;;;20.00;12.43;;;3.90;51.60;;;;;;5051599;28;20041;-46
2022/03/10 03:11:56;;;;;;;22.38;12.45;;;3.90;51.70;;;;;;5060767;28;20109;-45
2022/03/10 03:14:23;;;;;;;21.80;12.65;;;3.90;51.70;;;;;;5073199;28;20064;-47
2022/03/10 03:16:57;;;;;;;19.45;11.65;;;3.90;51.70;;;;;;5055185;28;20119;-45
2022/03/10 03:19:25;;;;;;;22.77;13.10;;;3.90;51.80;;;;;;5030504;28;20103;-45
2022/03/10 03:21:52;;;;;;;22.42;13.90;;;3.90;51.80;;;;;;5063504;28;20045;-45
2022/03/10 03:24:20;;;;;;;24.30;12.90;;;3.90;51.70;;;;;;5073248;28;20097;-49
2022/03/10 03:26:48;;;;;;;22.70;12.38;;;3.90;51.70;;;;;;5073273;28;20060;-45
2022/03/10 03:29:15;;;;;;;24.13;13.45;;;3.80;51.70;;;;;;5058089;28;20045;-45
2022/03/10 03:31:42;;;;;;;21.92;12.20;;;3.80;51.80;;;;;;5064819;28;20500;-46
2022/03/10 03:34:12;;;;;;;20.65;12.93;;;3.80;51.90;;;;;;5072743;28;20041;-47
2022/03/10 03:36:44;;;;;;;23.63;12.23;;;3.80;51.90;;;;;;5073589;28;20446;-48
2022/03/10 03:39:12;;;;;;;24.17;12.85;;;3.80;52.20;;;;;;5041559;28;20094;-49
2022/03/10 03:41:40;;;;;;;19.67;12.30;;;3.70;52.50;;;;;;5054463;28;20070;-45
2022/03/10 03:44:08;;;;;;;19.90;12.18;;;3.70;51.90;;;;;;5072677;28;20040;-47
2022/03/10 03:46:35;;;;;;;26.23;12.60;;;3.70;52.00;;;;;;5067282;28;20123;-44
2022/03/10 03:49:09;;;;;;;23.48;12.82;;;3.70;52.00;;;;;;5061346;28;20071;-46
2022/03/10 03:51:40;;;;;;;21.73;11.95;;;3.70;52.00;;;;;;5072857;28;20052;-48
2022/03/10 03:54:09;;;;;;;25.42;13.32;;;3.70;52.00;;;;;;5070894;28;20044;-45
2022/03/10 03:56:37;;;;;;;22.80;12.80;;;3.70;52.00;;;;;;5057152;28;20041;-44
2022/03/10 03:59:05;;;;;;;18.77;11.43;;;3.70;52.20;;;;;;5056179;28;20094;-46
2022/03/10 04:01:31;;;;;;;18.83;11.60;;;3.70;52.20;;;;;;5070258;28;20573;-44
2022/03/10 04:03:59;;;;;;;20.67;12.05;;;3.60;52.20;;;;;;5072302;28;20044;-46
2022/03/10 04:06:26;;;;;;;19.98;12.02;;;3.70;52.20;;;;;;5056904;28;20056;-46
2022/03/10 04:08:55;;;;;;;19.45;12.38;;;3.60;52.90;;;;;;5072238;28;20041;-47
2022/03/10 04:11:22;;;;;;;21.02;11.55;;;3.60;52.30;;;;;;5054972;28;20041;-45
2022/03/10 04:13:48;;;;;;;25.23;12.05;;;3.60;52.40;;;;;;5054433;28;20408;-46
2022/03/10 04:16:17;;;;;;;20.35;12.00;;;3.60;52.40;;;;;;5051184;28;20447;-47
2022/03/10 04:18:45;;;;;;;22.23;12.40;;;3.60;52.40;;;;;;5068971;28;20047;-45
2022/03/10 04:21:11;;;;;;;22.77;12.18;;;3.60;52.40;;;;;;5071810;28;20305;-45
2022/03/10 04:23:38;;;;;;;24.42;11.85;;;3.60;52.50;;;;;;5067335;28;20048;-49
2022/03/10 04:26:05;;;;;;;21.15;11.85;;;3.60;52.50;;;;;;5070119;22;20132;-50
2022/03/10 04:28:32;;;;;;;21.48;12.60;;;3.60;52.50;;;;;;5069303;28;20036;-50
2022/03/10 04:30:59;;;;;;;20.58;11.55;;;3.60;52.50;;;;;;5071860;28;20086;-49
2022/03/10 04:33:26;;;;;;;27.98;12.15;;;3.60;52.50;;;;;;5059747;28;20071;-49
2022/03/10 04:35:52;;;;;;;21.85;12.10;;;3.60;52.50;;;;;;5057885;28;20064;-49
2022/03/10 04:38:22;;;;;;;22.92;12.35;;;3.60;52.60;;;;;;5069105;28;20051;-49
2022/03/10 04:40:48;;;;;;;23.00;11.70;;;3.50;52.60;;;;;;5059258;28;20036;-48
2022/03/10 04:43:15;;;;;;;20.25;12.25;;;3.60;52.70;;;;;;5047038;28;20101;-49
2022/03/10 04:45:42;;;;;;;21.33;12.05;;;3.60;53.40;;;;;;5063401;28;20071;-49
2022/03/10 04:48:09;;;;;;;21.10;11.82;;;3.50;52.70;;;;;;5070838;28;20040;-48
2022/03/10 04:50:38;;;;;;;22.02;11.75;;;3.50;52.70;;;;;;5069604;28;20029;-49
2022/03/10 04:53:07;;;;;;;24.30;12.43;;;3.50;52.70;;;;;;5055938;28;20517;-49
2022/03/10 04:55:34;;;;;;;21.35;12.00;;;3.60;52.80;;;;;;5051795;28;20389;-49
2022/03/10 04:58:02;;;;;;;19.48;12.52;;;3.60;52.80;;;;;;5054813;28;20102;-49
2022/03/10 05:00:29;;;;;;;23.00;12.00;;;3.60;52.90;;;;;;5070056;28;20043;-51
2022/03/10 05:02:56;;;;;;;23.50;11.95;;;3.60;52.90;;;;;;5070756;28;20098;-48
2022/03/10 05:05:23;;;;;;;22.05;12.00;;;3.60;52.90;;;;;;5069915;28;20072;-48
2022/03/10 05:07:52;;;;;;;22.52;11.70;;;3.60;52.80;;;;;;5045443;28;20098;-48
2022/03/10 05:10:19;;;;;;;21.27;12.52;;;3.60;52.80;;;;;;5067070;28;20067;-50
2022/03/10 05:12:53;;;;;;;22.13;12.43;;;3.60;52.70;;;;;;5056020;28;20139;-48
2022/03/10 05:15:23;;;;;;;22.13;10.80;;;3.60;53.10;;;;;;5065262;28;20497;-48
2022/03/10 05:17:50;;;;;;;21.38;11.80;;;3.50;52.70;;;;;;5070135;28;20052;-52
2022/03/10 05:20:18;;;;;;;23.75;12.60;;;3.50;52.60;;;;;;5059671;28;20041;-49
2022/03/10 05:22:47;;;;;;;22.90;12.10;;;3.50;52.60;;;;;;5043543;28;20073;-48
2022/03/10 05:25:15;;;;;;;23.33;13.05;;;3.50;52.70;;;;;;5045977;28;20497;-52
2022/03/10 05:27:43;;;;;;;21.35;12.45;;;3.50;52.80;;;;;;5049050;28;20452;-49
2022/03/10 05:30:11;;;;;;;23.30;12.88;;;3.50;52.80;;;;;;5048968;28;20664;-54
2022/03/10 05:32:38;;;;;;;23.17;12.23;;;3.50;52.70;;;;;;5049163;28;20044;-50
2022/03/10 05:35:07;;;;;;;26.15;13.27;;;3.40;52.70;;;;;;5049937;28;20045;-53
2022/03/10 05:37:38;;;;;;;24.08;13.18;;;3.50;52.80;;;;;;5048042;28;20463;-49
2022/03/10 05:40:10;;;;;;;26.08;13.20;;;3.40;53.00;;;;;;5045512;28;20045;-50
2022/03/10 05:42:41;;;;;;;22.55;13.15;;;3.40;52.80;;;;;;5051398;28;20045;-52
2022/03/10 05:45:08;;;;;;;24.83;13.03;;;3.40;52.90;;;;;;5050745;28;20076;-52
2022/03/10 05:47:35;;;;;;;27.45;12.80;;;3.40;52.70;;;;;;5048023;28;20651;-49
2022/03/10 05:50:03;;;;;;;26.10;12.25;;;3.40;52.70;;;;;;5048795;28;20049;-54
2022/03/10 05:52:30;;;;;;;23.83;12.45;;;3.30;52.60;;;;;;5044077;28;20548;-49
2022/03/10 05:54:57;;;;;;;24.00;12.20;;;3.30;52.70;;;;;;5052909;28;20049;-51
2022/03/10 05:57:27;;;;;;;25.13;13.50;;;3.30;52.70;;;;;;5046570;28;20128;-48
2022/03/10 05:59:54;;;;;;;23.98;12.50;;;3.30;53.00;;;;;;5051522;28;20073;-47
2022/03/10 06:02:21;;;;;;;21.80;12.48;;;3.30;52.80;;;;;;5051229;28;20029;-47
2022/03/10 06:04:48;;;;;;;19.88;11.82;;;3.30;52.90;;;;;;5049539;28;20127;-51
2022/03/10 06:07:16;;;;;;;25.02;12.93;;;3.30;53.00;;;;;;5051792;28;20045;-48
2022/03/10 06:09:44;;;;;;;23.20;12.07;;;3.30;53.00;;;;;;5047334;28;20049;-47
2022/03/10 06:12:10;;;;;;;19.55;11.90;;;3.30;53.00;;;;;;5057331;28;20558;-49
2022/03/10 06:14:38;;;;;;;19.52;12.00;;;3.20;52.90;;;;;;5049607;28;20412;-51
2022/03/10 06:17:05;;;;;;;28.95;13.07;;;3.20;53.00;;;;;;5039556;28;20762;-47
2022/03/10 06:19:32;;;;;;;22.45;12.43;;;3.20;53.00;;;;;;5065627;28;20051;-51
2022/03/10 06:21:59;;;;;;;25.20;13.38;;;3.20;53.10;;;;;;5057462;28;20033;-46
2022/03/10 06:24:26;;;;;;;27.40;11.77;;;3.20;53.80;;;;;;5050760;28;20048;-51
2022/03/10 06:26:52;;;;;;;21.20;11.77;;;3.20;53.20;;;;;;5041169;28;20102;-56
2022/03/10 06:29:19;;;;;;;22.15;12.10;;;3.30;53.30;;;;;;5060940;28;20082;-56
2022/03/10 06:31:47;;;;;;;37.38;13.00;;;3.20;53.30;;;;;;5067733;28;20048;-54
2022/03/10 06:34:14;;;;;;;26.17;12.60;;;3.20;53.40;;;;;;5068255;28;20090;-55
2022/03/10 06:36:41;;;;;;;30.20;14.07;;;3.30;53.40;;;;;;5053810;28;20424;-55
2022/03/10 06:39:07;;;;;;;20.60;11.98;;;3.20;53.40;;;;;;5055399;28;20086;-56
2022/03/10 06:41:34;;;;;;;25.27;13.05;;;3.30;53.50;;;;;;5062554;28;20047;-55
2022/03/10 06:44:06;;;;;;;25.52;12.50;;;3.30;53.60;;;;;;5057940;28;20041;-56
2022/03/10 06:46:33;;;;;;;27.63;12.18;;;3.30;53.60;;;;;;5048022;28;20468;-56
2022/03/10 06:48:59;;;;;;;21.80;12.15;;;3.30;53.60;;;;;;5066268;28;20072;-56
2022/03/10 06:51:26;;;;;;;25.20;12.85;;;3.30;53.60;;;;;;5063559;28;20037;-57
2022/03/10 06:53:54;;;;;;;20.45;13.27;;;3.40;53.70;;;;;;5045450;28;20078;-57
2022/03/10 06:56:25;;;;;;;28.30;12.70;;;3.40;53.70;;;;;;5058151;28;20126;-59
2022/03/10 06:58:51;;;;;;;24.92;12.55;;;3.40;53.70;;;;;;5068317;28;20500;-56
2022/03/10 07:01:21;;;;;;;24.58;13.00;;;3.40;53.70;;;;;;5056344;28;20111;-57
2022/03/10 07:03:48;;;;;;;24.63;12.80;;;3.50;53.80;;;;;;5052018;28;20060;-57
2022/03/10 07:06:15;;;;;;;29.08;12.10;;;3.50;53.80;;;;;;5050488;28;20539;-56
2022/03/10 07:08:41;;;;;;;23.58;12.63;;;3.50;53.80;;;;;;5056507;28;20493;-57
2022/03/10 07:11:08;;;;;;;23.25;13.18;;;3.50;53.80;;;;;;5050128;28;20052;-57
2022/03/10 07:13:36;;;;;;;24.17;13.10;;;3.60;54.00;;;;;;5051266;28;20076;-57
2022/03/10 07:16:03;;;;;;;27.88;13.05;;;3.60;53.90;;;;;;5051946;28;20095;-57
2022/03/10 07:18:30;;;;;;;20.20;12.32;;;3.60;54.00;;;;;;5068471;28;20400;-56
2022/03/10 07:20:57;;;;;;;26.83;12.63;;;3.60;54.00;;;;;;5068782;28;20036;-57
2022/03/10 07:23:24;;;;;;;26.35;12.50;;;3.60;54.20;;;;;;5043263;28;20084;-57
2022/03/10 07:25:54;;;;;;;26.67;13.63;;;3.70;54.30;;;;;;5046162;28;20043;-57
2022/03/10 07:28:20;;;;;;;22.63;13.13;;;3.70;54.20;;;;;;5068318;28;20072;-57
2022/03/10 07:30:47;;;;;;;23.67;12.70;;;3.80;54.30;;;;;;5064208;28;20637;-57
2022/03/10 07:33:14;;;;;;;24.42;12.90;;;3.80;54.30;;;;;;5044355;28;20037;-56
2022/03/10 07:35:41;;;;;;;19.23;12.15;;;3.90;54.40;;;;;;5054389;28;20045;-56
2022/03/10 07:38:07;;;;;;;28.83;13.23;;;3.90;54.50;;;;;;5048621;28;20041;-59
2022/03/10 07:40:34;;;;;;;23.52;13.57;;;4.00;54.60;;;;;;5045185;28;20048;-59
2022/03/10 07:43:02;;;;;;;25.70;14.85;;;4.00;54.60;;;;;;5047918;28;20048;-59
2022/03/10 07:45:29;;;;;;;28.90;13.85;;;4.00;54.70;;;;;;5068514;28;20067;-56
2022/03/10 07:47:56;;;;;;;27.00;13.77;;;4.10;54.50;;;;;;5055149;28;20717;-57
2022/03/10 07:50:23;;;;;;;27.08;13.38;;;4.20;54.30;;;;;;5051886;28;20045;-57
2022/03/10 07:52:50;;;;;;;23.63;12.77;;;4.20;54.20;;;;;;5048387;28;20037;-57
2022/03/10 07:55:17;;;;;;;23.73;12.93;;;4.30;54.10;;;;;;5059109;28;20557;-57
2022/03/10 07:57:44;;;;;;;21.77;14.20;;;4.40;54.10;;;;;;5072474;28;20053;-57
2022/03/10 08:00:11;;;;;;;22.90;13.07;;;4.40;54.20;;;;;;5050830;28;20033;-57
2022/03/10 08:02:38;;;;;;;21.95;12.93;;;4.50;53.90;;;;;;5053962;28;20044;-57
2022/03/10 08:05:07;;;;;;;22.70;13.48;;;4.60;54.00;;;;;;5059135;28;20499;-57
2022/03/10 08:07:34;;;;;;;22.33;13.88;;;4.80;53.70;;;;;;5057549;28;20111;-56
2022/03/10 08:10:04;;;;;;;28.77;14.77;;;4.90;53.60;;;;;;5050366;28;20042;-57
2022/03/10 08:12:32;;;;;;;27.30;14.07;;;5.00;53.60;;;;;;5054988;28;20053;-57
2022/03/10 08:15:00;;;;;;;25.23;13.88;;;5.10;53.50;;;;;;5057380;28;20051;-56
2022/03/10 08:17:27;;;;;;;21.63;13.55;;;5.20;53.40;;;;;;5024151;28;20053;-57
2022/03/10 08:19:54;;;;;;;28.23;15.02;;;5.40;53.20;;;;;;5053038;28;20039;-56
2022/03/10 08:22:22;;;;;;;26.88;15.32;;;5.50;53.20;;;;;;5058417;28;20708;-56
2022/03/10 08:24:48;;;;;;;25.45;13.60;;;5.60;53.10;;;;;;5071551;28;20101;-56
2022/03/10 08:27:15;;;;;;;25.00;13.77;;;5.70;52.90;;;;;;5071040;28;20056;-56
2022/03/10 08:29:44;;;;;;;26.63;15.05;;;5.80;52.70;;;;;;5054089;28;20760;-57
2022/03/10 08:32:13;;;;;;;22.75;13.13;;;6.00;52.70;;;;;;5066367;28;20059;-55
2022/03/10 08:34:40;;;;;;;23.40;14.20;;;6.10;52.60;;;;;;5047360;28;20041;-57
2022/03/10 08:37:07;;;;;;;24.33;13.73;;;6.20;52.40;;;;;;5050086;28;20073;-57
2022/03/10 08:39:34;;;;;;;29.27;13.82;;;6.40;52.30;;;;;;5046044;28;20403;-56
2022/03/10 08:42:01;;;;;;;18.58;13.15;;;6.40;52.20;;;;;;5056646;28;20056;-55
2022/03/10 08:44:28;;;;;;;24.77;13.68;;;6.60;52.20;;;;;;5053398;28;20107;-56
2022/03/10 08:46:55;;;;;;;22.85;13.98;;;6.70;52.20;;;;;;5049110;28;20546;-56
2022/03/10 08:49:22;;;;;;;23.15;13.25;;;6.70;52.00;;;;;;5055323;28;20047;-57
2022/03/10 08:51:50;;;;;;;20.15;13.77;;;6.80;51.90;;;;;;5066421;28;20110;-56
2022/03/10 08:54:19;;;;;;;21.50;14.20;;;6.90;51.70;;;;;;5071043;28;20040;-57
2022/03/10 08:56:46;;;;;;;20.40;13.02;;;7.00;51.40;;;;;;5038081;28;20041;-57
2022/03/10 08:59:13;;;;;;;21.67;12.88;;;7.10;51.20;;;;;;5046921;28;20060;-55
2022/03/10 09:01:40;;;;;;;19.83;13.75;;;7.20;51.10;;;;;;5048860;28;20025;-56
2022/03/10 09:04:08;;;;;;;24.20;14.45;;;7.30;50.80;;;;;;5049772;28;20037;-56
2022/03/10 09:06:35;;;;;;;24.75;13.90;;;7.40;50.40;;;;;;5049007;28;20043;-57
2022/03/10 09:09:03;;;;;;;22.27;14.02;;;7.50;50.20;;;;;;5059673;28;20040;-57
2022/03/10 09:11:30;;;;;;;23.08;13.77;;;7.60;49.90;;;;;;5071858;28;20052;-56
2022/03/10 09:13:59;;;;;;;22.58;13.82;;;7.70;49.70;;;;;;5048014;28;20049;-57
2022/03/10 09:16:26;;;;;;;22.75;13.07;;;7.80;49.60;;;;;;5048807;28;20048;-58
2022/03/10 09:18:54;;;;;;;22.58;14.00;;;7.90;49.40;;;;;;5064689;28;20037;-57
2022/03/10 09:21:21;;;;;;;20.13;13.18;;;8.00;49.20;;;;;;5063024;28;20052;-57
2022/03/10 09:23:48;;;;;;;21.40;13.30;;;8.10;49.00;;;;;;5047955;28;20041;-57
2022/03/10 09:26:15;;;;;;;22.38;13.27;;;8.20;49.10;;;;;;5055059;28;20064;-57
2022/03/10 09:28:43;;;;;;;20.42;13.27;;;8.30;48.90;;;;;;5068454;28;20037;-57
2022/03/10 09:31:17;;;;;;;20.25;13.93;;;8.30;48.70;;;;;;5065564;28;20045;-57
2022/03/10 09:33:45;;;;;;;19.95;13.38;;;8.40;49.20;;;;;;5036782;28;20435;-57
2022/03/10 09:36:13;;;;;;;20.88;14.48;;;8.50;48.70;;;;;;5002631;28;20058;-57
2022/03/10 09:38:41;;;;;;;21.60;14.30;;;8.60;48.40;;;;;;5061086;28;20048;-57
2022/03/10 09:41:08;;;;;;;24.08;15.20;;;8.70;48.40;;;;;;5054210;28;20045;-57
2022/03/10 09:43:37;;;;;;;25.70;14.85;;;8.80;48.30;;;;;;5048325;28;20086;-58
2022/03/10 09:46:05;;;;;;;22.90;14.00;;;8.90;48.10;;;;;;5057576;28;20110;-57
2022/03/10 09:48:33;;;;;;;24.60;14.75;;;9.00;47.90;;;;;;5069239;28;20496;-57
2022/03/10 09:51:00;;;;;;;23.60;13.98;;;9.00;47.70;;;;;;5069000;28;20462;-57
2022/03/10 09:53:28;;;;;;;27.42;15.55;;;9.20;47.70;;;;;;5043161;28;20061;-58
2022/03/10 09:55:55;;;;;;;22.38;13.68;;;9.20;47.50;;;;;;5054748;28;20068;-57
2022/03/10 09:58:23;;;;;;;25.27;14.90;;;9.30;47.30;;;;;;5047540;28;20033;-57
2022/03/10 10:00:50;;;;;;;23.00;14.32;;;9.40;47.30;;;;;;5053805;28;20044;-57
2022/03/10 10:03:18;;;;;;;29.45;14.68;;;9.50;47.30;;;;;;5050867;28;20061;-57
2022/03/10 10:05:45;;;;;;;23.65;15.98;;;9.60;47.10;;;;;;5047863;28;20033;-57
2022/03/10 10:08:17;;;;;;;23.52;15.98;;;9.70;47.00;;;;;;5049011;28;20052;-58
2022/03/10 10:10:53;;;;;;;27.95;15.68;;;9.80;46.80;;;;;;5052536;28;20051;-57
2022/03/10 10:13:23;;;;;;;24.02;15.95;;;9.80;47.10;;;;;;5034389;28;20047;-56
2022/03/10 10:16:04;;;;;;;27.48;14.57;;;9.90;46.90;;;;;;5061466;28;20094;-57
2022/03/10 10:18:33;;;;;;;24.48;14.82;;;10.00;46.50;;;;;;5060186;28;20029;-56
2022/03/10 10:21:20;;;;;;;23.42;15.63;;;10.10;46.80;;;;;;5031397;28;20041;-56
2022/03/10 10:23:49;;;;;;;25.70;14.38;;;10.20;46.60;;;;;;5047549;28;20052;-56
2022/03/10 10:26:16;;;;;;;25.15;16.05;;;10.30;46.80;;;;;;5056536;28;20450;-56
2022/03/10 10:28:47;;;;;;;30.40;14.75;;;10.40;46.70;;;;;;5068143;28;20062;-57
2022/03/10 10:31:20;;;;;;;24.75;15.55;;;10.50;46.80;;;;;;5057995;28;20033;-57
2022/03/10 10:34:02;;;;;;;23.98;14.90;;;10.60;46.60;;;;;;5052872;28;20032;-57
2022/03/10 10:36:31;;;;;;;26.85;16.35;;;10.70;46.80;;;;;;5048877;28;20045;-57
2022/03/10 10:39:14;;;;;;;23.13;14.85;;;11.00;46.70;;;;;;5045391;28;20480;-56
2022/03/10 10:41:42;;;;;;;21.10;14.10;;;10.90;46.30;;;;;;5043158;28;20098;-55
2022/03/10 10:44:23;;;;;;;24.27;16.20;;;11.00;46.10;;;;;;5071243;22;20066;-74
2022/03/10 10:46:58;;;;;;;;;;;11.00;46.00;;;;;;5068210;28;20067;-75
2022/03/10 10:49:25;;;;;;;25.38;14.85;;;11.20;46.10;;;;;;5040643;28;19921;-74
2022/03/10 10:51:56;;;;;;;24.52;14.98;;;11.30;45.90;;;;;;5054050;28;20041;-75
2022/03/10 10:54:28;;;;;;;22.70;14.27;;;11.30;46.00;;;;;;5025447;28;20045;-75
2022/03/10 10:57:03;;;;;;;23.00;15.40;;;11.40;45.90;;;;;;5017609;28;20481;-75
2022/03/10 10:59:41;;;;;;;24.02;16.38;;;11.50;46.00;;;;;;5010473;28;20053;-74
2022/03/10 11:02:19;;;;;;;26.00;14.88;;;11.60;46.60;;;;;;4998898;28;20131;-75
2022/03/10 11:04:51;;;;;;;28.20;15.48;;;11.70;45.90;;;;;;5033801;28;20045;-74
2022/03/10 11:07:22;;;;;;;27.25;14.80;;;11.80;45.50;;;;;;5031414;28;20133;-74
2022/03/10 11:09:52;;;;;;;24.42;14.68;;;11.90;45.50;;;;;;5006290;28;20048;-74
2022/03/10 11:12:19;;;;;;;28.08;15.95;;;12.00;45.40;;;;;;5033862;28;20480;-74
2022/03/10 11:14:47;;;;;;;25.80;16.10;;;12.10;45.20;;;;;;5019282;28;20038;-74
2022/03/10 11:17:17;;;;;;;25.75;15.35;;;12.10;45.30;;;;;;5024579;28;20056;-74
2022/03/10 11:19:49;;;;;;;26.95;15.52;;;12.30;45.30;;;;;;5017439;28;20049;-74
2022/03/10 11:22:55;;;;;;;25.83;15.23;;;12.30;45.00;;;;;;5034176;28;20041;-74
2022/03/10 11:25:52;;;;;;;28.63;15.10;;;12.40;45.40;;;;;;5049338;28;20045;-74
2022/03/10 11:28:26;;;;;;;24.02;15.65;;;12.60;45.20;;;;;;5012236;28;20504;-74
2022/03/10 11:30:55;;;;;;;23.55;14.73;;;12.70;44.80;;;;;;5040282;28;20047;-74
2022/03/10 11:33:30;;;;;;;27.05;15.60;;;12.80;44.70;;;;;;5049530;28;20076;-75
2022/03/10 11:35:58;;;;;;;23.08;15.77;;;12.80;44.70;;;;;;5031655;28;20052;-74
2022/03/10 11:38:48;;;;;;;23.27;14.77;;;12.90;44.40;;;;;;5040966;28;20052;-75
2022/03/10 11:41:15;;;;;;;20.92;13.63;;;13.10;44.30;;;;;;5011632;28;20184;-74
2022/03/10 11:43:56;;;;;;;29.27;15.52;;;13.10;44.20;;;;;;5026653;28;20047;-74
2022/03/10 11:46:26;;;;;;;25.67;15.07;;;13.20;43.90;;;;;;4999762;28;20049;-75
2022/03/10 11:49:14;;;;;;;22.40;14.38;;;13.30;44.10;;;;;;5021687;28;20511;-75
2022/03/10 11:51:56;;;;;;;24.65;15.10;;;13.40;44.10;;;;;;5001362;28;20049;-74
2022/03/10 11:54:24;;;;;;;23.90;15.23;;;13.50;44.10;;;;;;5025840;28;20464;-75
2022/03/10 11:56:51;;;;;;;24.55;15.35;;;13.50;44.40;;;;;;5019869;28;20383;-75
2022/03/10 11:59:31;;;;;;;25.15;15.85;;;13.60;43.90;;;;;;5045417;28;20036;-75
2022/03/10 12:01:59;;;;;;;26.38;17.33;;;13.70;43.50;;;;;;5009930;28;20144;-75
2022/03/10 12:04:37;;;;;;;27.73;16.20;;;13.80;43.70;;;;;;4992309;28;20501;-75
2022/03/10 12:07:05;;;;;;;25.00;16.20;;;13.90;44.10;;;;;;5031034;28;20378;-75
2022/03/10 12:09:41;;;;;;;28.60;16.77;;;14.00;43.70;;;;;;5037532;28;20393;-75
2022/03/10 12:12:20;;;;;;;22.40;15.05;;;14.00;43.50;;;;;;5031818;28;20116;-75
2022/03/10 12:15:36;;;;;;;25.38;15.32;;;14.10;43.40;;;;;;5028639;28;20045;-74
2022/03/10 12:18:14;;;;;;;22.60;16.35;;;14.20;43.20;;;;;;5025267;28;20049;-75
2022/03/10 12:20:48;;;;;;;21.98;15.23;;;14.30;43.20;;;;;;5016395;28;20059;-75
2022/03/10 12:23:16;;;;;;;24.42;14.90;;;14.30;43.00;;;;;;5023926;28;20037;-75
2022/03/10 12:25:48;;;;;;;22.55;14.85;;;14.40;42.90;;;;;;4994874;28;20323;-75
2022/03/10 12:28:21;;;;;;;26.52;14.95;;;14.50;43.00;;;;;;5032638;28;20041;-75
2022/03/10 12:30:48;;;;;;;23.45;14.73;;;14.50;42.90;;;;;;5011399;28;20360;-74
2022/03/10 12:33:15;;;;;;;20.25;13.77;;;14.60;42.60;;;;;;5072731;22;20068;-51
2022/03/10 12:35:42;;;;;;;23.15;13.98;;;14.70;42.70;;;;;;5033215;28;20073;-53
2022/03/10 12:38:09;;;;;;;24.30;15.68;;;14.80;42.50;;;;;;5031424;28;20068;-51
2022/03/10 12:40:38;;;;;;;27.00;16.23;;;14.90;42.60;;;;;;5027653;28;20042;-53
2022/03/10 12:43:07;;;;;;;24.80;15.35;;;15.00;42.60;;;;;;5019438;28;20459;-53
2022/03/10 12:45:43;;;;;;;25.65;15.77;;;15.10;41.80;;;;;;5049936;28;20795;-50
2022/03/10 12:48:17;;;;;;;21.52;13.40;;;15.40;41.70;;;;;;5034929;28;20080;-55
2022/03/10 12:50:45;;;;;;;21.13;14.85;;;15.30;41.50;;;;;;5049237;28;20075;-50